Time;durP1;ratioP1;P1;durP2;ratioP2;P2;SDS_P1;SDS_P2;PMS_P1;PMS_P2;Temp;Humidity;BMP_temperature;BMP_pressure;BME280_temperature;BME280_humidity;BME280_pressure;Samples;Min_cycle;Max_cycle;Signal;HPM_P1;HPM_P2
2023/08/24 00:01:58;;;;;;;;;;;;;;;;;;5061463;28;20019;-68
2023/08/24 00:04:25;;;;;;;;;;;;;;;;;;5070892;28;19928;-68
2023/08/24 00:06:53;;;;;;;;;;;;;;;;;;5069975;28;19924;-69
2023/08/24 00:09:20;;;;;;;;;;;;;;;;;;5070121;28;19950;-68
2023/08/24 00:11:48;;;;;;;;;;;;;;;;;;5071459;28;20448;-69
2023/08/24 00:14:16;;;;;;;;;;;;;;;;;;5070733;28;20413;-69
2023/08/24 00:16:43;;;;;;;;;;;;;;;;;;5071326;28;20323;-69
2023/08/24 00:19:10;;;;;;;;;;;;;;;;;;5070865;28;19939;-69
2023/08/24 00:21:37;;;;;;;;;;;;;;;;;;5070227;28;19929;-69
2023/08/24 00:24:04;;;;;;;;;;;;;;;;;;5056741;28;20291;-69
2023/08/24 00:26:31;;;;;;;;;;;;;;;;;;5066742;28;19936;-69
2023/08/24 00:28:58;;;;;;;;;;;;;;;;;;5069408;28;20342;-69
2023/08/24 00:31:25;;;;;;;;;;;;;;;;;;5069591;28;19924;-70
2023/08/24 00:33:52;;;;;;;;;;;;;;;;;;5069356;28;19977;-70
2023/08/24 00:36:20;;;;;;;;;;;;;;;;;;5070605;28;20376;-70
2023/08/24 00:38:50;;;;;;;;;;;;;;;;;;5069755;28;20294;-69
2023/08/24 00:41:18;;;;;;;;;;;;;;;;;;5058064;28;19928;-70
2023/08/24 00:43:46;;;;;;;;;;;;;;;;;;5070339;28;19928;-69
2023/08/24 00:46:13;;;;;;;;;;;;;;;;;;5068869;28;19943;-69
2023/08/24 00:48:40;;;;;;;;;;;;;;;;;;5070404;28;19931;-70
2023/08/24 00:51:07;;;;;;;;;;;;;;;;;;5070419;28;19929;-69
2023/08/24 00:53:34;;;;;;;;;;;;;;;;;;5071092;28;19924;-69
2023/08/24 00:56:01;;;;;;;;;;;;;;;;;;5068515;28;19925;-70
2023/08/24 00:58:28;;;;;;;;;;;;;;;;;;5069778;28;19932;-69
2023/08/24 01:00:55;;;;;;;;;;;;;;;;;;5069701;28;19925;-69
2023/08/24 01:03:22;;;;;;;;;;;;;;;;;;5068832;28;19963;-70
2023/08/24 01:05:49;;;;;;;;;;;;;;;;;;5070058;28;19944;-70
2023/08/24 01:08:16;;;;;;;;;;;;;;;;;;5068364;28;20023;-70
2023/08/24 01:10:43;;;;;;;;;;;;;;;;;;5070247;28;19977;-69
2023/08/24 01:13:10;;;;;;;;;;;;;;;;;;5067859;28;19967;-70
2023/08/24 01:15:37;;;;;;;;;;;;;;;;;;5073474;28;20386;-70
2023/08/24 01:18:04;;;;;;;;;;;;;;;;;;5073414;28;19932;-70
2023/08/24 01:20:33;;;;;;;;;;;;;;;;;;5070712;28;20323;-70
2023/08/24 01:23:00;;;;;;;;;;;;;;;;;;5073630;28;20382;-71
2023/08/24 01:25:26;;;;;;;;;;;;;;;;;;5072213;28;20070;-70
2023/08/24 01:27:53;;;;;;;;;;;;;;;;;;5074388;28;19928;-70
2023/08/24 01:30:20;;;;;;;;;;;;;;;;;;5070858;28;20030;-70
2023/08/24 01:32:47;;;;;;;;;;;;;;;;;;5073960;28;20035;-70
2023/08/24 01:35:14;;;;;;;;;;;;;;;;;;5073287;28;20413;-70
2023/08/24 01:37:41;;;;;;;;;;;;;;;;;;5071861;28;20034;-70
2023/08/24 01:40:12;;;;;;;;;;;;;;;;;;5071248;28;20366;-70
2023/08/24 01:42:39;;;;;;;;;;;;;;;;;;5073603;28;20023;-70
2023/08/24 01:45:07;;;;;;;;;;;;;;;;;;5070796;28;19929;-70
2023/08/24 01:47:34;;;;;;;;;;;;;;;;;;5071797;28;19933;-70
2023/08/24 01:50:01;;;;;;;;;;;;;;;;;;5073408;28;20371;-70
2023/08/24 01:52:28;;;;;;;;;;;;;;;;;;5075045;28;19924;-69
2023/08/24 01:54:55;;;;;;;;;;;;;;;;;;5072011;28;19950;-70
2023/08/24 01:57:22;;;;;;;;;;;;;;;;;;5072442;28;19952;-69
2023/08/24 01:59:49;;;;;;;;;;;;;;;;;;5070362;28;19985;-70
2023/08/24 02:02:16;;;;;;;;;;;;;;;;;;5072632;28;19977;-70
2023/08/24 02:04:43;;;;;;;;;;;;;;;;;;5072194;28;19928;-70
2023/08/24 02:07:10;;;;;;;;;;;;;;;;;;5071707;28;19925;-70
2023/08/24 02:09:37;;;;;;;;;;;;;;;;;;5073219;28;19994;-72
2023/08/24 02:12:04;;;;;;;;;;;;;;;;;;5073772;28;19925;-70
2023/08/24 02:14:31;;;;;;;;;;;;;;;;;;5070255;28;19978;-70
2023/08/24 02:16:58;;;;;;;;;;;;;;;;;;5073384;28;19974;-70
2023/08/24 02:19:25;;;;;;;;;;;;;;;;;;5072554;28;19935;-70
2023/08/24 02:21:52;;;;;;;;;;;;;;;;;;5071029;28;20011;-70
2023/08/24 02:24:19;;;;;;;;;;;;;;;;;;5071888;28;19970;-70
2023/08/24 02:26:46;;;;;;;;;;;;;;;;;;5073980;28;19978;-69
2023/08/24 02:29:13;;;;;;;;;;;;;;;;;;5072704;28;19925;-69
2023/08/24 02:31:40;;;;;;;;;;;;;;;;;;5072991;28;19924;-70
2023/08/24 02:34:07;;;;;;;;;;;;;;;;;;5073080;28;19967;-71
2023/08/24 02:36:34;;;;;;;;;;;;;;;;;;5072068;28;19924;-69
2023/08/24 02:39:01;;;;;;;;;;;;;;;;;;5072079;28;20268;-71
2023/08/24 02:41:28;;;;;;;;;;;;;;;;;;5071792;28;19970;-70
2023/08/24 02:43:55;;;;;;;;;;;;;;;;;;5071064;28;19924;-70
2023/08/24 02:46:22;;;;;;;;;;;;;;;;;;5070373;28;19932;-70
2023/08/24 02:48:49;;;;;;;;;;;;;;;;;;5072516;28;19929;-70
2023/08/24 02:51:16;;;;;;;;;;;;;;;;;;5070079;28;19985;-70
2023/08/24 02:53:43;;;;;;;;;;;;;;;;;;5072342;28;19978;-69
2023/08/24 02:56:10;;;;;;;;;;;;;;;;;;5071374;28;20011;-69
2023/08/24 02:58:37;;;;;;;;;;;;;;;;;;5069837;28;19928;-69
2023/08/24 03:01:05;;;;;;;;;;;;;;;;;;5068676;28;20392;-69
2023/08/24 03:03:32;;;;;;;;;;;;;;;;;;5072754;28;19951;-69
2023/08/24 03:05:59;;;;;;;;;;;;;;;;;;5070458;28;19956;-69
2023/08/24 03:08:26;;;;;;;;;;;;;;;;;;5071283;28;19928;-70
2023/08/24 03:10:53;;;;;;;;;;;;;;;;;;5070471;28;19924;-69
2023/08/24 03:13:20;;;;;;;;;;;;;;;;;;5071297;28;19924;-69
2023/08/24 03:15:47;;;;;;;;;;;;;;;;;;5071254;28;19924;-69
2023/08/24 03:18:14;;;;;;;;;;;;;;;;;;5070846;28;19925;-69
2023/08/24 03:20:41;;;;;;;;;;;;;;;;;;5069721;28;19924;-69
2023/08/24 03:23:08;;;;;;;;;;;;;;;;;;5071550;28;19931;-70
2023/08/24 03:25:35;;;;;;;;;;;;;;;;;;5072431;28;19929;-70
2023/08/24 03:28:02;;;;;;;;;;;;;;;;;;5069752;28;19937;-70
2023/08/24 03:30:29;;;;;;;;;;;;;;;;;;5066209;28;19928;-70
2023/08/24 03:32:57;;;;;;;;;;;;;;;;;;5060252;28;19936;-70
2023/08/24 03:35:24;;;;;;;;;;;;;;;;;;5071299;28;19971;-70
2023/08/24 03:37:51;;;;;;;;;;;;;;;;;;5070388;28;19978;-70
2023/08/24 03:40:18;;;;;;;;;;;;;;;;;;5071311;28;20284;-70
2023/08/24 03:42:45;;;;;;;;;;;;;;;;;;5071525;28;19978;-70
2023/08/24 03:45:12;;;;;;;;;;;;;;;;;;5068738;28;19963;-70
2023/08/24 03:47:39;;;;;;;;;;;;;;;;;;5071742;28;19924;-68
2023/08/24 03:50:06;;;;;;;;;;;;;;;;;;5071367;28;19928;-70
2023/08/24 03:52:33;;;;;;;;;;;;;;;;;;5070937;28;19925;-70
2023/08/24 03:55:00;;;;;;;;;;;;;;;;;;5067460;28;20342;-68
2023/08/24 03:57:27;;;;;;;;;;;;;;;;;;5059555;28;19924;-68
2023/08/24 03:59:54;;;;;;;;;;;;;;;;;;5069784;28;19924;-68
2023/08/24 04:02:21;;;;;;;;;;;;;;;;;;5071257;28;19925;-68
2023/08/24 04:04:48;;;;;;;;;;;;;;;;;;5070579;28;19976;-69
2023/08/24 04:07:15;;;;;;;;;;;;;;;;;;5070477;28;20295;-69
2023/08/24 04:09:42;;;;;;;;;;;;;;;;;;5071366;28;19974;-69
2023/08/24 04:12:09;;;;;;;;;;;;;;;;;;5060334;28;20314;-69
2023/08/24 04:14:36;;;;;;;;;;;;;;;;;;5071240;28;19928;-69
2023/08/24 04:17:03;;;;;;;;;;;;;;;;;;5070260;28;19940;-69
2023/08/24 04:19:30;;;;;;;;;;;;;;;;;;5071470;28;19946;-69
2023/08/24 04:21:57;;;;;;;;;;;;;;;;;;5071941;28;19928;-69
2023/08/24 04:24:25;;;;;;;;;;;;;;;;;;5071972;28;20341;-69
2023/08/24 04:26:52;;;;;;;;;;;;;;;;;;5071935;28;20401;-69
2023/08/24 04:29:19;;;;;;;;;;;;;;;;;;5070061;28;19990;-69
2023/08/24 04:31:46;;;;;;;;;;;;;;;;;;5071249;28;20305;-69
2023/08/24 04:34:13;;;;;;;;;;;;;;;;;;5071753;28;19977;-69
2023/08/24 04:36:40;;;;;;;;;;;;;;;;;;5071118;28;20318;-68
2023/08/24 04:39:07;;;;;;;;;;;;;;;;;;5071384;28;20025;-69
2023/08/24 04:41:34;;;;;;;;;;;;;;;;;;5070579;28;19936;-68
2023/08/24 04:44:01;;;;;;;;;;;;;;;;;;5069645;28;20384;-68
2023/08/24 04:46:28;;;;;;;;;;;;;;;;;;5067941;28;19970;-68
2023/08/24 04:48:55;;;;;;;;;;;;;;;;;;5064965;28;19978;-68
2023/08/24 04:51:23;;;;;;;;;;;;;;;;;;5071261;28;20284;-69
2023/08/24 04:53:50;;;;;;;;;;;;;;;;;;5072868;28;19959;-69
2023/08/24 04:56:19;;;;;;;;;;;;;;;;;;5071136;28;19929;-68
2023/08/24 04:58:46;;;;;;;;;;;;;;;;;;5071997;28;20331;-69
2023/08/24 05:01:13;;;;;;;;;;;;;;;;;;5070698;28;19935;-69
2023/08/24 05:03:40;;;;;;;;;;;;;;;;;;5073443;28;19977;-69
2023/08/24 05:06:07;;;;;;;;;;;;;;;;;;5074020;28;19952;-69
2023/08/24 05:08:34;;;;;;;;;;;;;;;;;;5071753;28;19928;-70
2023/08/24 05:11:01;;;;;;;;;;;;;;;;;;5072098;28;19930;-68
2023/08/24 05:13:28;;;;;;;;;;;;;;;;;;5071357;28;19966;-68
2023/08/24 05:15:55;;;;;;;;;;;;;;;;;;5073859;28;19986;-68
2023/08/24 05:18:22;;;;;;;;;;;;;;;;;;5074152;28;19929;-68
2023/08/24 05:20:49;;;;;;;;;;;;;;;;;;5071031;28;20384;-69
2023/08/24 05:23:16;;;;;;;;;;;;;;;;;;5071189;28;19924;-68
2023/08/24 05:25:43;;;;;;;;;;;;;;;;;;5073864;28;19968;-69
2023/08/24 05:28:10;;;;;;;;;;;;;;;;;;5073229;28;19986;-68
2023/08/24 05:30:37;;;;;;;;;;;;;;;;;;5073688;28;19925;-69
2023/08/24 05:33:04;;;;;;;;;;;;;;;;;;5072838;28;19924;-69
2023/08/24 05:35:31;;;;;;;;;;;;;;;;;;5072866;28;19985;-69
2023/08/24 05:37:58;;;;;;;;;;;;;;;;;;5071005;28;19924;-69
2023/08/24 05:40:25;;;;;;;;;;;;;;;;;;5073700;28;19924;-69
2023/08/24 05:42:53;;;;;;;;;;;;;;;;;;5070627;28;20009;-69
2023/08/24 05:45:20;;;;;;;;;;;;;;;;;;5066911;28;19928;-69
2023/08/24 05:47:47;;;;;;;;;;;;;;;;;;5073398;28;19928;-69
2023/08/24 05:50:14;;;;;;;;;;;;;;;;;;5073385;28;19928;-69
2023/08/24 05:52:41;;;;;;;;;;;;;;;;;;5073668;28;19931;-70
2023/08/24 05:55:08;;;;;;;;;;;;;;;;;;5066221;28;19932;-69
2023/08/24 05:57:35;;;;;;;;;;;;;;;;;;5062755;28;19925;-69
2023/08/24 06:00:03;;;;;;;;;;;;;;;;;;5072066;28;19924;-70
2023/08/24 06:02:30;;;;;;;;;;;;;;;;;;5071912;28;19997;-70
2023/08/24 06:04:57;;;;;;;;;;;;;;;;;;5070077;28;19925;-70
2023/08/24 06:07:24;;;;;;;;;;;;;;;;;;5064748;28;20079;-71
2023/08/24 06:09:51;;;;;;;;;;;;;;;;;;5065999;28;19928;-72
2023/08/24 06:12:18;;;;;;;;;;;;;;;;;;5068489;28;19924;-71
2023/08/24 06:14:45;;;;;;;;;;;;;;;;;;5070052;28;19931;-72
2023/08/24 06:17:12;;;;;;;;;;;;;;;;;;5069616;28;20375;-72
2023/08/24 06:19:39;;;;;;;;;;;;;;;;;;5071860;28;20406;-70
2023/08/24 06:22:06;;;;;;;;;;;;;;;;;;5073772;28;19977;-72
2023/08/24 06:24:33;;;;;;;;;;;;;;;;;;5070355;28;19986;-72
2023/08/24 06:27:00;;;;;;;;;;;;;;;;;;5067199;28;20039;-72
2023/08/24 06:29:27;;;;;;;;;;;;;;;;;;5071783;28;19970;-71
2023/08/24 06:31:55;;;;;;;;;;;;;;;;;;5073254;28;19990;-72
2023/08/24 06:34:22;;;;;;;;;;;;;;;;;;5065614;28;20019;-71
2023/08/24 06:36:49;;;;;;;;;;;;;;;;;;5058302;28;19924;-72
2023/08/24 06:39:16;;;;;;;;;;;;;;;;;;5066738;28;19973;-72
2023/08/24 06:41:43;;;;;;;;;;;;;;;;;;5069787;28;20341;-71
2023/08/24 06:44:10;;;;;;;;;;;;;;;;;;5070984;28;19969;-71
2023/08/24 06:46:37;;;;;;;;;;;;;;;;;;5064265;28;19928;-72
2023/08/24 06:49:05;;;;;;;;;;;;;;;;;;5067179;28;20349;-73
2023/08/24 06:51:32;;;;;;;;;;;;;;;;;;5072490;28;19955;-72
2023/08/24 06:53:59;;;;;;;;;;;;;;;;;;5071102;28;19982;-73
2023/08/24 06:56:26;;;;;;;;;;;;;;;;;;5070142;28;20348;-72
2023/08/24 06:58:53;;;;;;;;;;;;;;;;;;5068927;28;19925;-72
2023/08/24 07:01:20;;;;;;;;;;;;;;;;;;5067984;28;20391;-72
2023/08/24 07:03:47;;;;;;;;;;;;;;;;;;5070858;28;19935;-74
2023/08/24 07:06:14;;;;;;;;;;;;;;;;;;5068248;28;20387;-71
2023/08/24 07:08:41;;;;;;;;;;;;;;;;;;5070907;28;20372;-72
2023/08/24 07:11:08;;;;;;;;;;;;;;;;;;5070848;28;19924;-72
2023/08/24 07:13:35;;;;;;;;;;;;;;;;;;5070724;28;19932;-72
2023/08/24 07:16:03;;;;;;;;;;;;;;;;;;5066299;28;19972;-72
2023/08/24 07:18:30;;;;;;;;;;;;;;;;;;5063192;28;20572;-72
2023/08/24 07:20:58;;;;;;;;;;;;;;;;;;5072013;28;19975;-71
2023/08/24 07:23:25;;;;;;;;;;;;;;;;;;5068583;28;19932;-74
2023/08/24 07:25:52;;;;;;;;;;;;;;;;;;5064466;28;20411;-73
2023/08/24 07:28:19;;;;;;;;;;;;;;;;;;5067708;28;19985;-72
2023/08/24 07:30:47;;;;;;;;;;;;;;;;;;5065150;28;19947;-73
2023/08/24 07:33:14;;;;;;;;;;;;;;;;;;5064978;28;19924;-73
2023/08/24 07:35:41;;;;;;;;;;;;;;;;;;5070157;28;19932;-72
2023/08/24 07:38:08;;;;;;;;;;;;;;;;;;5070688;28;20304;-73
2023/08/24 07:40:35;;;;;;;;;;;;;;;;;;5069764;28;19974;-76
2023/08/24 07:43:02;;;;;;;;;;;;;;;;;;5071444;28;19982;-72
2023/08/24 07:45:29;;;;;;;;;;;;;;;;;;5065162;28;20022;-73
2023/08/24 07:47:56;;;;;;;;;;;;;;;;;;5053034;28;19924;-74
2023/08/24 07:50:23;;;;;;;;;;;;;;;;;;5053416;28;19937;-72
2023/08/24 07:52:50;;;;;;;;;;;;;;;;;;5071570;28;19947;-71
2023/08/24 07:55:17;;;;;;;;;;;;;;;;;;5068916;28;19986;-72
2023/08/24 07:57:44;;;;;;;;;;;;;;;;;;5064532;28;20337;-72
2023/08/24 08:00:13;;;;;;;;;;;;;;;;;;5068184;28;20333;-73
2023/08/24 08:02:40;;;;;;;;;;;;;;;;;;5058735;28;19924;-72
2023/08/24 08:05:07;;;;;;;;;;;;;;;;;;5063964;28;20036;-72
2023/08/24 08:07:34;;;;;;;;;;;;;;;;;;5063076;28;20075;-70
2023/08/24 08:10:01;;;;;;;;;;;;;;;;;;5066722;28;19943;-72
2023/08/24 08:12:31;;;;;;;;;;;;;;;;;;5061567;28;19932;-72
2023/08/24 08:14:58;;;;;;;;;;;;;;;;;;5067619;28;20949;-72
2023/08/24 08:17:25;;;;;;;;;;;;;;;;;;5069904;28;19963;-72
2023/08/24 08:19:52;;;;;;;;;;;;;;;;;;5069764;28;19963;-72
2023/08/24 08:22:19;;;;;;;;;;;;;;;;;;5067550;28;19931;-71
2023/08/24 08:24:47;;;;;;;;;;;;;;;;;;5064220;28;20037;-71
2023/08/24 08:27:14;;;;;;;;;;;;;;;;;;5064222;28;20011;-72
2023/08/24 08:29:42;;;;;;;;;;;;;;;;;;5067902;28;19925;-71
2023/08/24 08:32:11;;;;;;;;;;;;;;;;;;5064528;28;19931;-72
2023/08/24 08:34:38;;;;;;;;;;;;;;;;;;5069196;28;19924;-72
2023/08/24 08:37:05;;;;;;;;;;;;;;;;;;5064436;28;19925;-72
2023/08/24 08:39:34;;;;;;;;;;;;;;;;;;5065573;28;19994;-72
2023/08/24 08:42:01;;;;;;;;;;;;;;;;;;5060911;28;20054;-72
2023/08/24 08:44:28;;;;;;;;;;;;;;;;;;5067187;28;19973;-72
2023/08/24 08:46:56;;;;;;;;;;;;;;;;;;5068089;28;20292;-72
2023/08/24 08:49:23;;;;;;;;;;;;;;;;;;5069656;28;19936;-71
2023/08/24 08:51:51;;;;;;;;;;;;;;;;;;5066588;28;19950;-73
2023/08/24 08:54:18;;;;;;;;;;;;;;;;;;5064422;28;19929;-73
2023/08/24 08:56:45;;;;;;;;;;;;;;;;;;5060312;28;19925;-72
2023/08/24 08:59:12;;;;;;;;;;;;;;;;;;5068670;28;20449;-72
2023/08/24 09:01:39;;;;;;;;;;;;;;;;;;5068632;28;19925;-73
2023/08/24 09:04:06;;;;;;;;;;;;;;;;;;5069589;28;20294;-72
2023/08/24 09:06:33;;;;;;;;;;;;;;;;;;5068600;28;20423;-72
2023/08/24 09:09:00;;;;;;;;;;;;;;;;;;5064346;28;19925;-73
2023/08/24 09:11:28;;;;;;;;;;;;;;;;;;5065103;28;19928;-72
2023/08/24 09:13:55;;;;;;;;;;;;;;;;;;5053325;28;20265;-72
2023/08/24 09:16:22;;;;;;;;;;;;;;;;;;5070817;28;19925;-71
2023/08/24 09:18:49;;;;;;;;;;;;;;;;;;5069041;28;19924;-71
2023/08/24 09:21:16;;;;;;;;;;;;;;;;;;5068281;28;19925;-72
2023/08/24 09:23:43;;;;;;;;;;;;;;;;;;5068699;28;19929;-71
2023/08/24 09:26:10;;;;;;;;;;;;;;;;;;5067781;28;19942;-71
2023/08/24 09:28:39;;;;;;;;;;;;;;;;;;5070731;28;19970;-73
2023/08/24 09:31:05;;;;;;;;;;;;;;;;;;5069503;28;20015;-71
2023/08/24 09:33:33;;;;;;;;;;;;;;;;;;5069773;28;19978;-70
2023/08/24 09:36:03;;;;;;;;;;;;;;;;;;5063592;28;20414;-71
2023/08/24 09:38:30;;;;;;;;;;;;;;;;;;5072228;28;19932;-71
2023/08/24 09:40:57;;;;;;;;;;;;;;;;;;5073946;28;19978;-70
2023/08/24 09:43:25;;;;;;;;;;;;;;;;;;5073982;28;19928;-67
2023/08/24 09:45:52;;;;;;;;;;;;;;;;;;5073712;28;20355;-70
2023/08/24 09:48:19;;;;;;;;;;;;;;;;;;5070079;28;19925;-71
2023/08/24 09:50:47;;;;;;;;;;;;;;;;;;5069460;28;19947;-70
2023/08/24 09:53:14;;;;;;;;;;;;;;;;;;5069504;28;19924;-70
2023/08/24 09:55:42;;;;;;;;;;;;;;;;;;5073234;28;19924;-70
2023/08/24 09:58:09;;;;;;;;;;;;;;;;;;5073196;28;19983;-68
2023/08/24 10:00:37;;;;;;;;;;;;;;;;;;5073236;28;20478;-68
2023/08/24 10:03:04;;;;;;;;;;;;;;;;;;5073075;28;19970;-69
2023/08/24 10:05:31;;;;;;;;;;;;;;;;;;5073437;28;20433;-68
2023/08/24 10:07:58;;;;;;;;;;;;;;;;;;5063178;28;19986;-68
2023/08/24 10:10:25;;;;;;;;;;;;;;;;;;5068898;28;20280;-68
2023/08/24 10:12:52;;;;;;;;;;;;;;;;;;5069303;28;19970;-70
2023/08/24 10:15:22;;;;;;;;;;;;;;;;;;5069117;28;20350;-70
2023/08/24 10:17:49;;;;;;;;;;;;;;;;;;5071174;28;20944;-70
2023/08/24 10:20:16;;;;;;;;;;;;;;;;;;5067453;28;23106;-71
2023/08/24 10:22:43;;;;;;;;;;;;;;;;;;5059624;28;19928;-70
2023/08/24 10:25:10;;;;;;;;;;;;;;;;;;5065025;28;19925;-71
2023/08/24 10:27:37;;;;;;;;;;;;;;;;;;5069421;28;19993;-70
2023/08/24 10:30:06;;;;;;;;;;;;;;;;;;5069320;28;19925;-70
2023/08/24 10:32:37;;;;;;;;;;;;;;;;;;5071182;28;19972;-70
2023/08/24 10:35:04;;;;;;;;;;;;;;;;;;5070824;28;19939;-70
2023/08/24 10:37:34;;;;;;;;;;;;;;;;;;5069277;28;19986;-70
2023/08/24 10:40:01;;;;;;;;;;;;;;;;;;5068571;28;19931;-70
2023/08/24 10:42:28;;;;;;;;;;;;;;;;;;5071238;28;19986;-71
2023/08/24 10:44:55;;;;;;;;;;;;;;;;;;5068847;28;19933;-70
2023/08/24 10:47:22;;;;;;;;;;;;;;;;;;5073413;28;20291;-70
2023/08/24 10:49:49;;;;;;;;;;;;;;;;;;5070057;28;19925;-68
2023/08/24 10:52:16;;;;;;;;;;;;;;;;;;5071764;28;19931;-69
2023/08/24 10:54:44;;;;;;;;;;;;;;;;;;5069265;28;19928;-69
2023/08/24 10:57:11;;;;;;;;;;;;;;;;;;5069124;28;19925;-68
2023/08/24 10:59:38;;;;;;;;;;;;;;;;;;5071783;28;20594;-69
2023/08/24 11:02:06;;;;;;;;;;;;;;;;;;5068319;28;19933;-68
2023/08/24 11:04:33;;;;;;;;;;;;;;;;;;5072245;28;19937;-69
2023/08/24 11:07:02;;;;;;;;;;;;;;;;;;5071196;28;19924;-69
2023/08/24 11:09:29;;;;;;;;;;;;;;;;;;5059984;28;19928;-70
2023/08/24 11:11:56;;;;;;;;;;;;;;;;;;5070075;28;19936;-69
2023/08/24 11:14:25;;;;;;;;;;;;;;;;;;5060915;28;19925;-71
2023/08/24 11:16:52;;;;;;;;;;;;;;;;;;5058479;28;20004;-70
2023/08/24 11:19:19;;;;;;;;;;;;;;;;;;5062216;28;20382;-70
2023/08/24 11:21:47;;;;;;;;;;;;;;;;;;5073445;28;19928;-71
2023/08/24 11:24:14;;;;;;;;;;;;;;;;;;5069496;28;19932;-70
2023/08/24 11:26:42;;;;;;;;;;;;;;;;;;5064446;28;19939;-71
2023/08/24 11:29:09;;;;;;;;;;;;;;;;;;5051406;28;19965;-71
2023/08/24 11:31:36;;;;;;;;;;;;;;;;;;5070623;28;20460;-72
2023/08/24 11:34:04;;;;;;;;;;;;;;;;;;5076176;22;19927;-71
2023/08/24 11:36:31;;;;;;;;;;;;;;;;;;5082223;28;19940;-70
2023/08/24 11:38:58;;;;;;;;;;;;;;;;;;5082101;28;19926;-70
2023/08/24 11:41:25;;;;;;;;;;;;;;;;;;5085377;28;19924;-71
2023/08/24 11:43:52;;;;;;;;;;;;;;;;;;5089384;28;19928;-71
2023/08/24 11:46:19;;;;;;;;;;;;;;;;;;5091932;28;20129;-72
2023/08/24 11:48:46;;;;;;;;;;;;;;;;;;5074731;28;19928;-70
2023/08/24 11:51:13;;;;;;;;;;;;;;;;;;5083615;28;19977;-70
2023/08/24 11:53:40;;;;;;;;;;;;;;;;;;5085862;28;19932;-70
2023/08/24 11:56:07;;;;;;;;;;;;;;;;;;5077714;28;20022;-69
2023/08/24 11:58:34;;;;;;;;;;;;;;;;;;5078787;28;19989;-69
2023/08/24 12:01:01;;;;;;;;;;;;;;;;;;5080879;28;19977;-68
2023/08/24 12:03:28;;;;;;;;;;;;;;;;;;5084050;28;20421;-68
2023/08/24 12:05:56;;;;;;;;;;;;;;;;;;5086097;28;19924;-70
2023/08/24 12:08:23;;;;;;;;;;;;;;;;;;5081637;28;20306;-70
2023/08/24 12:10:50;;;;;;;;;;;;;;;;;;5075360;28;19978;-70
2023/08/24 12:13:17;;;;;;;;;;;;;;;;;;5077644;28;19924;-70
2023/08/24 12:15:47;;;;;;;;;;;;;;;;;;5088228;28;20097;-69
2023/08/24 12:18:15;;;;;;;;;;;;;;;;;;5087656;28;19931;-69
2023/08/24 12:20:42;;;;;;;;;;;;;;;;;;5088398;28;20383;-69
2023/08/24 12:23:09;;;;;;;;;;;;;;;;;;5089713;28;19924;-68
2023/08/24 12:25:36;;;;;;;;;;;;;;;;;;5088164;28;19993;-69
2023/08/24 12:28:03;;;;;;;;;;;;;;;;;;5090079;28;19969;-69
2023/08/24 12:30:30;;;;;;;;;;;;;;;;;;5086062;28;19928;-69
2023/08/24 12:32:57;;;;;;;;;;;;;;;;;;5084416;28;20330;-69
2023/08/24 12:35:24;;;;;;;;;;;;;;;;;;5088952;28;20054;-69
2023/08/24 12:37:51;;;;;;;;;;;;;;;;;;5089988;28;19931;-70
2023/08/24 12:40:18;;;;;;;;;;;;;;;;;;5088508;28;19924;-70
2023/08/24 12:42:45;;;;;;;;;;;;;;;;;;5089814;28;19978;-70
2023/08/24 12:45:13;;;;;;;;;;;;;;;;;;5082494;28;19924;-70
2023/08/24 12:47:40;;;;;;;;;;;;;;;;;;5088533;28;19924;-70
2023/08/24 12:50:07;;;;;;;;;;;;;;;;;;5087548;28;19924;-69
2023/08/24 12:52:35;;;;;;;;;;;;;;;;;;5084067;28;19924;-69
2023/08/24 12:55:04;;;;;;;;;;;;;;;;;;5081631;28;20295;-70
2023/08/24 12:57:31;;;;;;;;;;;;;;;;;;5087755;28;20019;-69
2023/08/24 13:00:06;;;;;;;;;;;;;;;;;;5077567;28;20088;-69
2023/08/24 13:02:33;;;;;;;;;;;;;;;;;;5081842;28;20001;-69
2023/08/24 13:05:03;;;;;;;;;;;;;;;;;;5082319;28;19993;-69
2023/08/24 13:07:30;;;;;;;;;;;;;;;;;;5082101;28;20030;-69
2023/08/24 13:09:57;;;;;;;;;;;;;;;;;;5086268;28;19985;-70
2023/08/24 13:12:25;;;;;;;;;;;;;;;;;;5086476;28;19928;-69
2023/08/24 13:14:52;;;;;;;;;;;;;;;;;;5092697;28;20485;-69
2023/08/24 13:17:19;;;;;;;;;;;;;;;;;;5086959;28;19972;-70
2023/08/24 13:19:48;;;;;;;;;;;;;;;;;;5089052;28;20433;-69
2023/08/24 13:22:15;;;;;;;;;;;;;;;;;;5090392;28;19925;-70
2023/08/24 13:24:43;;;;;;;;;;;;;;;;;;5091694;28;19947;-71
2023/08/24 13:27:11;;;;;;;;;;;;;;;;;;5089235;28;19927;-70
2023/08/24 13:29:38;;;;;;;;;;;;;;;;;;5082649;28;20012;-69
2023/08/24 13:32:05;;;;;;;;;;;;;;;;;;5091090;28;20337;-69
2023/08/24 13:34:32;;;;;;;;;;;;;;;;;;5083095;28;20297;-70
2023/08/24 13:36:59;;;;;;;;;;;;;;;;;;5078559;22;19928;-70
2023/08/24 13:39:28;;;;;;;;;;;;;;;;;;5065495;28;19924;-70
2023/08/24 13:41:55;;;;;;;;;;;;;;;;;;5061825;28;20239;-70
2023/08/24 13:44:22;;;;;;;;;;;;;;;;;;5067911;28;19950;-70
2023/08/24 13:46:49;;;;;;;;;;;;;;;;;;5061851;28;19931;-71
2023/08/24 13:49:16;;;;;;;;;;;;;;;;;;5056241;28;19924;-70
2023/08/24 13:51:43;;;;;;;;;;;;;;;;;;5066535;28;19928;-70
2023/08/24 13:54:14;;;;;;;;;;;;;;;;;;5061566;28;19929;-71
2023/08/24 13:56:45;;;;;;;;;;;;;;;;;;5057654;28;19924;-71
2023/08/24 13:59:12;;;;;;;;;;;;;;;;;;5067923;28;19924;-70
2023/08/24 14:01:39;;;;;;;;;;;;;;;;;;5065408;28;19925;-70
2023/08/24 14:04:06;;;;;;;;;;;;;;;;;;5057351;28;20391;-71
2023/08/24 14:06:34;;;;;;;;;;;;;;;;;;5059002;28;19978;-71
2023/08/24 14:09:02;;;;;;;;;;;;;;;;;;5065120;28;19928;-72
2023/08/24 14:11:29;;;;;;;;;;;;;;;;;;5061738;28;20342;-71
2023/08/24 14:13:56;;;;;;;;;;;;;;;;;;5062803;28;19924;-72
2023/08/24 14:16:23;;;;;;;;;;;;;;;;;;5060300;28;20258;-70
2023/08/24 14:18:50;;;;;;;;;;;;;;;;;;5065154;28;19944;-70
2023/08/24 14:21:23;;;;;;;;;;;;;;;;;;5061030;28;19986;-71
2023/08/24 14:23:50;;;;;;;;;;;;;;;;;;5061608;28;19929;-70
2023/08/24 14:26:17;;;;;;;;;;;;;;;;;;5068683;28;20006;-71
2023/08/24 14:28:44;;;;;;;;;;;;;;;;;;5058836;28;19995;-71
2023/08/24 14:31:11;;;;;;;;;;;;;;;;;;5054531;28;20547;-70
2023/08/24 14:33:38;;;;;;;;;;;;;;;;;;5065780;28;20011;-69
2023/08/24 14:36:05;;;;;;;;;;;;;;;;;;5070296;28;19925;-69
2023/08/24 14:38:32;;;;;;;;;;;;;;;;;;5076814;22;20022;-70
2023/08/24 14:41:00;;;;;;;;;;;;;;;;;;5085893;28;19970;-69
2023/08/24 14:43:27;;;;;;;;;;;;;;;;;;5087816;28;20030;-69
2023/08/24 14:45:54;;;;;;;;;;;;;;;;;;5081016;28;20260;-70
2023/08/24 14:48:21;;;;;;;;;;;;;;;;;;5080959;28;19925;-71
2023/08/24 14:50:49;;;;;;;;;;;;;;;;;;5083743;28;19985;-70
2023/08/24 14:53:16;;;;;;;;;;;;;;;;;;5085635;28;19977;-71
2023/08/24 14:55:44;;;;;;;;;;;;;;;;;;5067404;28;19924;-70
2023/08/24 14:58:11;;;;;;;;;;;;;;;;;;5068310;28;19931;-70
2023/08/24 15:00:38;;;;;;;;;;;;;;;;;;5067395;28;20311;-71
2023/08/24 15:03:06;;;;;;;;;;;;;;;;;;5067490;28;20010;-72
2023/08/24 15:05:33;;;;;;;;;;;;;;;;;;5056546;28;19971;-70
2023/08/24 15:08:00;;;;;;;;;;;;;;;;;;5064574;28;20345;-70
2023/08/24 15:10:27;;;;;;;;;;;;;;;;;;5054462;28;19936;-70
2023/08/24 15:12:54;;;;;;;;;;;;;;;;;;5066918;28;19933;-71
2023/08/24 15:15:21;;;;;;;;;;;;;;;;;;5066008;28;20013;-70
2023/08/24 15:17:48;;;;;;;;;;;;;;;;;;5063480;28;19968;-69
2023/08/24 15:20:15;;;;;;;;;;;;;;;;;;5063165;28;19932;-69
2023/08/24 15:22:42;;;;;;;;;;;;;;;;;;5055389;28;19924;-68
2023/08/24 15:25:10;;;;;;;;;;;;;;;;;;5060419;28;19925;-70
2023/08/24 15:27:37;;;;;;;;;;;;;;;;;;5060565;28;20003;-70
2023/08/24 15:30:05;;;;;;;;;;;;;;;;;;5062773;28;20482;-69
2023/08/24 15:32:32;;;;;;;;;;;;;;;;;;5068193;28;19929;-70
2023/08/24 15:34:59;;;;;;;;;;;;;;;;;;5053697;28;19932;-68
2023/08/24 15:37:26;;;;;;;;;;;;;;;;;;5060560;28;20013;-69
2023/08/24 15:39:53;;;;;;;;;;;;;;;;;;5059425;28;19967;-71
2023/08/24 15:42:20;;;;;;;;;;;;;;;;;;5061625;28;20000;-69
2023/08/24 15:44:47;;;;;;;;;;;;;;;;;;5062580;28;19934;-69
2023/08/24 15:47:14;;;;;;;;;;;;;;;;;;5064961;28;19936;-70
2023/08/24 15:49:41;;;;;;;;;;;;;;;;;;5063950;28;19970;-69
2023/08/24 15:52:08;;;;;;;;;;;;;;;;;;5064500;28;19924;-69
2023/08/24 15:54:36;;;;;;;;;;;;;;;;;;5061412;28;19956;-70
2023/08/24 15:57:03;;;;;;;;;;;;;;;;;;5055074;28;20005;-68
2023/08/24 15:59:30;;;;;;;;;;;;;;;;;;5066158;28;19990;-69
2023/08/24 16:01:57;;;;;;;;;;;;;;;;;;5058887;28;19979;-69
2023/08/24 16:04:24;;;;;;;;;;;;;;;;;;5065236;28;20395;-70
2023/08/24 16:06:51;;;;;;;;;;;;;;;;;;5051850;28;19962;-70
2023/08/24 16:09:18;;;;;;;;;;;;;;;;;;5054186;28;20570;-70
2023/08/24 16:11:45;;;;;;;;;;;;;;;;;;5057897;28;22582;-70
2023/08/24 16:14:12;;;;;;;;;;;;;;;;;;5062026;28;19978;-71
2023/08/24 16:16:39;;;;;;;;;;;;;;;;;;5069280;28;19925;-69
2023/08/24 16:19:06;;;;;;;;;;;;;;;;;;5059755;28;19929;-70
2023/08/24 16:21:33;;;;;;;;;;;;;;;;;;5065379;28;19925;-69
2023/08/24 16:24:00;;;;;;;;;;;;;;;;;;5066904;28;19924;-70
2023/08/24 16:26:27;;;;;;;;;;;;;;;;;;5066287;28;20023;-69
2023/08/24 16:28:54;;;;;;;;;;;;;;;;;;5069169;28;19931;-69
2023/08/24 16:31:21;;;;;;;;;;;;;;;;;;5069785;28;20333;-70
2023/08/24 16:33:48;;;;;;;;;;;;;;;;;;5071216;28;19932;-71
2023/08/24 16:36:15;;;;;;;;;;;;;;;;;;5061746;28;19942;-69
2023/08/24 16:38:42;;;;;;;;;;;;;;;;;;5065504;28;19972;-70
2023/08/24 16:41:09;;;;;;;;;;;;;;;;;;5071075;28;19925;-70
2023/08/24 16:43:37;;;;;;;;;;;;;;;;;;5060067;28;19925;-70
2023/08/24 16:46:04;;;;;;;;;;;;;;;;;;5057446;28;19929;-71